Time;durP1;ratioP1;P1;durP2;ratioP2;P2;SDS_P1;SDS_P2;PMS_P1;PMS_P2;Temp;Humidity;BMP_temperature;BMP_pressure;BME280_temperature;BME280_humidity;BME280_pressure;Samples;Min_cycle;Max_cycle;Signal;HPM_P1;HPM_P2
2022/12/17 13:06:41;;;;;;;;;;;;;;;;;;5053093;28;19950;-49
2022/12/17 13:09:20;;;;;;;;;;;;;;;;;;5053523;28;19925;-51
2022/12/17 13:11:48;;;;;;;;;;;;;;;;;;5052517;28;19982;-49
2022/12/17 13:14:18;;;;;;;;;;;;;;;;;;5053440;28;19997;-48
2022/12/17 13:16:50;;;;;;;;;;;;;;;;;;5052922;28;20266;-50
2022/12/17 13:19:19;;;;;;;;;;;;;;;;;;5051977;28;19994;-49
2022/12/17 13:21:46;;;;;;;;;;;;;;;;;;5052714;28;19978;-49
2022/12/17 13:24:22;;;;;;;;;;;;;;;;;;5052779;28;19953;-51
2022/12/17 13:26:49;;;;;;;;;;;;;;;;;;5052802;28;19924;-53
2022/12/17 13:29:27;;;;;;;;;;;;;;;;;;5052737;28;20392;-49
2022/12/17 13:32:08;;;;;;;;;;;;;;;;;;5052630;28;19929;-50
2022/12/17 13:34:49;;;;;;;;;;;;;;;;;;5050035;28;20392;-49
2022/12/17 13:37:21;;;;;;;;;;;;;;;;;;5052518;28;19924;-49
2022/12/17 13:39:51;;;;;;;;;;;;;;;;;;5052686;28;20355;-48
2022/12/17 13:42:19;;;;;;;;;;;;;;;;;;5052529;28;19953;-51
2022/12/17 13:44:47;;;;;;;;;;;;;;;;;;5052239;28;19929;-49
2022/12/17 13:47:20;;;;;;;;;;;;;;;;;;5052384;28;19929;-50
2022/12/17 13:49:50;;;;;;;;;;;;;;;;;;5052383;28;19932;-48
2022/12/17 13:52:17;;;;;;;;;;;;;;;;;;5052150;28;19971;-51
2022/12/17 13:54:44;;;;;;;;;;;;;;;;;;5052580;28;19974;-48
2022/12/17 13:57:12;;;;;;;;;;;;;;;;;;5052385;28;19933;-51
2022/12/17 13:59:39;;;;;;;;;;;;;;;;;;5052293;28;20007;-50
2022/12/17 14:02:07;;;;;;;;;;;;;;;;;;5052240;28;20298;-48
2022/12/17 14:04:33;;;;;;;;;;;;;;;;;;5061211;28;20328;-49
2022/12/17 14:07:03;;;;;;;;;;;;;;;;;;5072123;28;19925;-48
2022/12/17 14:09:32;;;;;;;;;;;;;;;;;;5072215;28;20002;-50
2022/12/17 14:14:44;;;;;;;;;;;;;;;;;;5062805;28;19931;-62
2022/12/17 14:17:17;;;;;;;;;;;;;;;;;;5056855;28;20445;-49
2022/12/17 14:19:43;;;;;;;;;;;;;;;;;;5052147;28;19925;-50
2022/12/17 14:22:15;;;;;;;;;;;;;;;;;;5051986;28;19924;-50
2022/12/17 14:24:42;;;;;;;;;;;;;;;;;;5055247;28;20007;-51
2022/12/17 14:27:21;;;;;;;;;;;;;;;;;;5071715;28;19924;-49
2022/12/17 14:29:48;;;;;;;;;;;;;;;;;;5054981;28;19930;-50
2022/12/17 14:32:24;;;;;;;;;;;;;;;;;;5071188;28;20447;-50
2022/12/17 14:34:50;;;;;;;;;;;;;;;;;;5067647;28;19929;-54
2022/12/17 14:37:19;;;;;;;;;;;;;;;;;;5068719;28;19925;-48
2022/12/17 14:39:46;;;;;;;;;;;;;;;;;;5075563;28;19958;-50
2022/12/17 14:44:56;;;;;;;;;;;;;;;;;;5063857;28;19925;-51
2022/12/17 14:47:25;;;;;;;;;;;;;;;;;;5055647;28;19972;-50
2022/12/17 14:49:54;;;;;;;;;;;;;;;;;;5057917;28;19929;-51
2022/12/17 14:52:25;;;;;;;;;;;;;;;;;;5055233;28;19924;-53
2022/12/17 14:54:52;;;;;;;;;;;;;;;;;;5060237;28;19925;-50
2022/12/17 14:57:20;;;;;;;;;;;;;;;;;;5074894;28;19924;-50
2022/12/17 14:59:46;;;;;;;;;;;;;;;;;;5071253;28;19924;-49
2022/12/17 15:02:19;;;;;;;;;;;;;;;;;;5054728;28;19925;-50
2022/12/17 15:04:46;;;;;;;;;;;;;;;;;;5055436;28;20386;-49
2022/12/17 15:07:14;;;;;;;;;;;;;;;;;;5054965;28;19932;-50
2022/12/17 15:09:41;;;;;;;;;;;;;;;;;;5063776;28;19924;-49
2022/12/17 15:12:09;;;;;;;;;;;;;;;;;;5066994;28;19931;-52
2022/12/17 15:14:35;;;;;;;;;;;;;;;;;;5072696;28;20317;-51
2022/12/17 15:17:02;;;;;;;;;;;;;;;;;;5073326;28;19938;-53
2022/12/17 15:19:28;;;;;;;;;;;;;;;;;;5070377;28;19928;-49
2022/12/17 15:21:56;;;;;;;;;;;;;;;;;;5075067;28;19924;-51
2022/12/17 15:24:23;;;;;;;;;;;;;;;;;;5075305;28;19948;-50
2022/12/17 15:26:50;;;;;;;;;;;;;;;;;;5075233;28;19928;-48
2022/12/17 15:29:16;;;;;;;;;;;;;;;;;;5073310;28;19928;-51
2022/12/17 15:31:43;;;;;;;;;;;;;;;;;;5074808;28;19970;-51
2022/12/17 15:34:10;;;;;;;;;;;;;;;;;;5067339;28;19925;-48
2022/12/17 15:36:37;;;;;;;;;;;;;;;;;;5066258;28;19978;-49
2022/12/17 15:39:06;;;;;;;;;;;;;;;;;;5067553;28;20034;-51
2022/12/17 15:44:16;;;;;;;;;;;;;;;;;;5061357;28;19940;-48
2022/12/17 15:46:43;;;;;;;;;;;;;;;;;;5054648;28;19925;-51
2022/12/17 15:49:12;;;;;;;;;;;;;;;;;;5054808;28;19932;-49
2022/12/17 15:51:39;;;;;;;;;;;;;;;;;;5054072;28;19925;-53
2022/12/17 15:54:07;;;;;;;;;;;;;;;;;;5055784;28;20271;-49
2022/12/17 15:56:36;;;;;;;;;;;;;;;;;;5065306;28;19931;-51
2022/12/17 15:59:02;;;;;;;;;;;;;;;;;;5074579;28;19928;-48
2022/12/17 16:01:29;;;;;;;;;;;;;;;;;;5073495;28;19970;-48
2022/12/17 16:03:55;;;;;;;;;;;;;;;;;;5075951;28;19928;-49
2022/12/17 16:06:22;;;;;;;;;;;;;;;;;;5094489;28;19935;-50
2022/12/17 16:08:48;;;;;;;;;;;;;;;;;;5084100;28;19932;-50
2022/12/17 16:11:16;;;;;;;;;;;;;;;;;;5066528;28;19929;-53
2022/12/17 16:13:43;;;;;;;;;;;;;;;;;;5074042;28;19928;-51
2022/12/17 16:16:10;;;;;;;;;;;;;;;;;;5073265;28;19924;-50
2022/12/17 16:18:37;;;;;;;;;;;;;;;;;;5063444;28;19928;-50
2022/12/17 16:21:04;;;;;;;;;;;;;;;;;;5069414;28;20404;-49
2022/12/17 16:23:31;;;;;;;;;;;;;;;;;;5055556;28;19974;-49
2022/12/17 16:25:58;;;;;;;;;;;;;;;;;;5054264;28;19974;-51
2022/12/17 16:28:26;;;;;;;;;;;;;;;;;;5071263;28;20291;-48
2022/12/17 16:31:00;;;;;;;;;;;;;;;;;;5073540;28;20274;-48
2022/12/17 16:33:26;;;;;;;;;;;;;;;;;;5073197;28;19929;-50
2022/12/17 16:35:53;;;;;;;;;;;;;;;;;;5073693;28;20289;-52
2022/12/17 16:38:20;;;;;;;;;;;;;;;;;;5073448;28;19924;-50
2022/12/17 16:40:47;;;;;;;;;;;;;;;;;;5074040;28;20553;-50
2022/12/17 16:43:13;;;;;;;;;;;;;;;;;;5073383;28;19924;-52
2022/12/17 16:45:47;;;;;;;;;;;;;;;;;;5073606;28;19928;-49
2022/12/17 16:48:13;;;;;;;;;;;;;;;;;;5073246;28;19925;-49
2022/12/17 16:50:40;;;;;;;;;;;;;;;;;;5073499;28;19925;-49
2022/12/17 16:53:06;;;;;;;;;;;;;;;;;;5066988;28;19928;-49
2022/12/17 16:55:33;;;;;;;;;;;;;;;;;;5070059;28;19975;-51
2022/12/17 16:57:59;;;;;;;;;;;;;;;;;;5071460;28;19924;-49
2022/12/17 17:00:26;;;;;;;;;;;;;;;;;;5073309;28;19939;-50
2022/12/17 17:02:54;;;;;;;;;;;;;;;;;;5072577;28;19970;-48
2022/12/17 17:05:20;;;;;;;;;;;;;;;;;;5073418;28;19931;-51
2022/12/17 17:07:47;;;;;;;;;;;;;;;;;;5073070;28;20384;-53
2022/12/17 17:10:13;;;;;;;;;;;;;;;;;;5073544;28;19929;-52
2022/12/17 17:12:40;;;;;;;;;;;;;;;;;;5072405;28;19970;-52
2022/12/17 17:15:07;;;;;;;;;;;;;;;;;;5063332;28;19925;-53
2022/12/17 17:17:34;;;;;;;;;;;;;;;;;;5053304;28;19925;-49
2022/12/17 17:20:02;;;;;;;;;;;;;;;;;;5062061;28;19924;-53
2022/12/17 17:22:29;;;;;;;;;;;;;;;;;;5060217;28;19933;-49
2022/12/17 17:24:55;;;;;;;;;;;;;;;;;;5053047;28;20356;-49
2022/12/17 17:27:22;;;;;;;;;;;;;;;;;;5061476;28;19972;-48
2022/12/17 17:29:49;;;;;;;;;;;;;;;;;;5071669;28;20309;-47
2022/12/17 17:32:15;;;;;;;;;;;;;;;;;;5070843;28;19982;-49
2022/12/17 17:34:42;;;;;;;;;;;;;;;;;;5062832;28;19924;-52
2022/12/17 17:37:10;;;;;;;;;;;;;;;;;;5072784;28;20357;-49
2022/12/17 17:39:36;;;;;;;;;;;;;;;;;;5072791;28;19971;-49
2022/12/17 17:42:03;;;;;;;;;;;;;;;;;;5072222;28;19924;-49
2022/12/17 17:44:29;;;;;;;;;;;;;;;;;;5053692;28;19928;-50
2022/12/17 17:46:56;;;;;;;;;;;;;;;;;;5052291;28;20343;-49
2022/12/17 17:49:23;;;;;;;;;;;;;;;;;;5052316;28;19971;-50
2022/12/17 17:51:49;;;;;;;;;;;;;;;;;;5052125;28;20008;-51
2022/12/17 17:54:17;;;;;;;;;;;;;;;;;;5052703;28;20394;-50
2022/12/17 17:56:44;;;;;;;;;;;;;;;;;;5052519;28;19925;-51
2022/12/17 17:59:11;;;;;;;;;;;;;;;;;;5066691;28;20057;-50
2022/12/17 18:01:39;;;;;;;;;;;;;;;;;;5066701;28;19991;-48
2022/12/17 18:04:07;;;;;;;;;;;;;;;;;;5072006;28;19924;-52
2022/12/17 18:06:36;;;;;;;;;;;;;;;;;;5063656;28;20290;-54
2022/12/17 18:09:03;;;;;;;;;;;;;;;;;;5067920;28;19924;-47
2022/12/17 18:11:31;;;;;;;;;;;;;;;;;;5071533;28;19924;-49
2022/12/17 18:13:58;;;;;;;;;;;;;;;;;;5062593;28;19925;-49
2022/12/17 18:16:26;;;;;;;;;;;;;;;;;;5054439;28;20344;-49
2022/12/17 18:18:53;;;;;;;;;;;;;;;;;;5066197;28;19971;-48
2022/12/17 18:21:20;;;;;;;;;;;;;;;;;;5072409;28;20332;-48
2022/12/17 18:23:47;;;;;;;;;;;;;;;;;;5055307;28;19925;-51
2022/12/17 18:26:14;;;;;;;;;;;;;;;;;;5052408;28;19932;-50
2022/12/17 18:28:43;;;;;;;;;;;;;;;;;;5052422;28;20359;-49
2022/12/17 18:31:10;;;;;;;;;;;;;;;;;;5054963;28;19928;-51
2022/12/17 18:33:38;;;;;;;;;;;;;;;;;;5061716;28;19986;-50
2022/12/17 18:36:08;;;;;;;;;;;;;;;;;;5067717;28;20365;-53
2022/12/17 18:38:34;;;;;;;;;;;;;;;;;;5071721;28;19924;-54
2022/12/17 18:43:21;;;;;;;;;;;;;;;;;;5067345;28;19928;-49
2022/12/17 18:43:51;;;;;;;;;;;;;;;;;;5058758;28;20045;-50
2022/12/17 18:46:18;;;;;;;;;;;;;;;;;;5072018;28;19933;-51
2022/12/17 18:48:44;;;;;;;;;;;;;;;;;;5071613;28;19990;-51
2022/12/17 18:51:11;;;;;;;;;;;;;;;;;;5071629;28;19925;-50
2022/12/17 18:53:37;;;;;;;;;;;;;;;;;;5071613;28;19929;-51
2022/12/17 18:56:06;;;;;;;;;;;;;;;;;;5065709;28;20350;-52
2022/12/17 18:58:33;;;;;;;;;;;;;;;;;;5052325;28;19928;-51
2022/12/17 19:01:01;;;;;;;;;;;;;;;;;;5051557;28;19924;-50
2022/12/17 19:03:28;;;;;;;;;;;;;;;;;;5051266;28;19929;-53
2022/12/17 19:05:54;;;;;;;;;;;;;;;;;;5052854;28;20428;-53
2022/12/17 19:08:21;;;;;;;;;;;;;;;;;;5051229;28;20074;-53
2022/12/17 19:10:47;;;;;;;;;;;;;;;;;;5050977;28;20356;-51
2022/12/17 19:13:14;;;;;;;;;;;;;;;;;;5051007;28;19970;-54
2022/12/17 19:15:43;;;;;;;;;;;;;;;;;;5051932;28;19936;-51
2022/12/17 19:18:11;;;;;;;;;;;;;;;;;;5053368;28;19928;-50
2022/12/17 19:20:38;;;;;;;;;;;;;;;;;;5055009;28;19952;-51
2022/12/17 19:23:04;;;;;;;;;;;;;;;;;;5054567;28;19996;-50
2022/12/17 19:25:31;;;;;;;;;;;;;;;;;;5054940;28;19987;-49
2022/12/17 19:27:57;;;;;;;;;;;;;;;;;;5054832;28;20089;-51
2022/12/17 19:30:24;;;;;;;;;;;;;;;;;;5054537;28;19929;-52
2022/12/17 19:32:50;;;;;;;;;;;;;;;;;;5067697;28;19931;-61
2022/12/17 19:35:18;;;;;;;;;;;;;;;;;;5066570;28;19937;-55
2022/12/17 19:37:45;;;;;;;;;;;;;;;;;;5088688;28;20316;-58
2022/12/17 19:40:12;;;;;;;;;;;;;;;;;;5073640;28;19928;-53
2022/12/17 19:42:39;;;;;;;;;;;;;;;;;;5071858;28;19936;-51
2022/12/17 19:45:06;;;;;;;;;;;;;;;;;;5072819;28;19931;-55
2022/12/17 19:47:32;;;;;;;;;;;;;;;;;;5076470;28;19924;-52
2022/12/17 19:49:59;;;;;;;;;;;;;;;;;;5073587;28;20320;-52
2022/12/17 19:52:27;;;;;;;;;;;;;;;;;;5066818;28;20431;-54
2022/12/17 19:54:53;;;;;;;;;;;;;;;;;;5062817;28;19924;-53
2022/12/17 19:57:20;;;;;;;;;;;;;;;;;;5078438;28;19925;-51
2022/12/17 19:59:47;;;;;;;;;;;;;;;;;;5075389;28;19948;-50
2022/12/17 20:02:15;;;;;;;;;;;;;;;;;;5075834;28;19924;-52
2022/12/17 20:04:42;;;;;;;;;;;;;;;;;;5076017;28;20424;-55
2022/12/17 20:07:09;;;;;;;;;;;;;;;;;;5068694;28;19987;-51
2022/12/17 20:09:36;;;;;;;;;;;;;;;;;;5087786;28;19928;-51
2022/12/17 20:12:03;;;;;;;;;;;;;;;;;;5068000;28;20389;-51
2022/12/17 20:14:30;;;;;;;;;;;;;;;;;;5053705;28;19999;-64
2022/12/17 20:16:58;;;;;;;;;;;;;;;;;;5053963;28;20254;-52
2022/12/17 20:19:25;;;;;;;;;;;;;;;;;;5053910;28;19956;-52
2022/12/17 20:21:52;;;;;;;;;;;;;;;;;;5054425;28;19925;-65
2022/12/17 20:24:19;;;;;;;;;;;;;;;;;;5053862;28;20487;-63
2022/12/17 20:26:48;;;;;;;;;;;;;;;;;;5077223;28;19928;-64
2022/12/17 20:29:15;;;;;;;;;;;;;;;;;;5076086;28;19931;-56
2022/12/17 20:31:42;;;;;;;;;;;;;;;;;;5082536;28;19950;-53
2022/12/17 20:34:09;;;;;;;;;;;;;;;;;;5087175;28;19934;-61
2022/12/17 20:36:37;;;;;;;;;;;;;;;;;;5080404;28;19925;-63
2022/12/17 20:39:04;;;;;;;;;;;;;;;;;;5069416;28;19964;-54
2022/12/17 20:41:31;;;;;;;;;;;;;;;;;;5057523;28;19959;-51
2022/12/17 20:44:02;;;;;;;;;;;;;;;;;;5063745;28;19980;-54
2022/12/17 20:46:28;;;;;;;;;;;;;;;;;;5073265;28;19999;-51
2022/12/17 20:48:55;;;;;;;;;;;;;;;;;;5073213;28;20299;-53
2022/12/17 20:51:22;;;;;;;;;;;;;;;;;;5072568;28;19970;-54
2022/12/17 20:53:49;;;;;;;;;;;;;;;;;;5077065;28;19977;-52
2022/12/17 20:56:17;;;;;;;;;;;;;;;;;;5073156;28;19931;-53
2022/12/17 20:58:44;;;;;;;;;;;;;;;;;;5072754;28;19928;-52
2022/12/17 21:01:13;;;;;;;;;;;;;;;;;;5070446;28;19967;-52
2022/12/17 21:03:40;;;;;;;;;;;;;;;;;;5075753;28;19968;-52
2022/12/17 21:06:07;;;;;;;;;;;;;;;;;;5071062;28;19931;-52
2022/12/17 21:08:34;;;;;;;;;;;;;;;;;;5070737;28;19925;-55
2022/12/17 21:11:01;;;;;;;;;;;;;;;;;;5070442;28;19932;-53
2022/12/17 21:13:30;;;;;;;;;;;;;;;;;;5058289;28;19931;-54
2022/12/17 21:15:58;;;;;;;;;;;;;;;;;;5072613;28;19986;-55
2022/12/17 21:18:26;;;;;;;;;;;;;;;;;;5072710;28;20401;-52
2022/12/17 21:20:56;;;;;;;;;;;;;;;;;;5065419;28;19970;-52
2022/12/17 21:23:23;;;;;;;;;;;;;;;;;;5069844;28;19924;-54
2022/12/17 21:25:56;;;;;;;;;;;;;;;;;;5072589;28;20105;-53
2022/12/17 21:28:23;;;;;;;;;;;;;;;;;;5072540;28;19928;-53
2022/12/17 21:30:49;;;;;;;;;;;;;;;;;;5069347;28;19982;-52
2022/12/17 21:33:16;;;;;;;;;;;;;;;;;;5057272;28;19929;-53
2022/12/17 21:35:44;;;;;;;;;;;;;;;;;;5063235;28;21548;-56
2022/12/17 21:38:11;;;;;;;;;;;;;;;;;;5072309;28;20011;-53
2022/12/17 21:40:37;;;;;;;;;;;;;;;;;;5071219;28;19924;-55
2022/12/17 21:43:04;;;;;;;;;;;;;;;;;;5054725;28;19925;-54
2022/12/17 21:45:35;;;;;;;;;;;;;;;;;;5052355;28;19929;-54
2022/12/17 21:48:01;;;;;;;;;;;;;;;;;;5057822;28;19924;-54
2022/12/17 21:50:28;;;;;;;;;;;;;;;;;;5061948;28;20028;-54
2022/12/17 21:52:56;;;;;;;;;;;;;;;;;;5051937;28;19987;-51
2022/12/17 21:55:23;;;;;;;;;;;;;;;;;;5052296;28;20410;-51
2022/12/17 21:57:50;;;;;;;;;;;;;;;;;;5052456;28;19929;-52
2022/12/17 22:00:16;;;;;;;;;;;;;;;;;;5057283;28;19950;-51
2022/12/17 22:02:43;;;;;;;;;;;;;;;;;;5071753;28;20339;-53
2022/12/17 22:05:09;;;;;;;;;;;;;;;;;;5058087;28;20374;-55
2022/12/17 22:07:36;;;;;;;;;;;;;;;;;;5051962;28;19925;-50
2022/12/17 22:10:04;;;;;;;;;;;;;;;;;;5051927;28;19971;-52
2022/12/17 22:15:14;;;;;;;;;;;;;;;;;;5056889;28;19931;-54
2022/12/17 22:17:41;;;;;;;;;;;;;;;;;;5066253;28;19932;-53
2022/12/17 22:20:08;;;;;;;;;;;;;;;;;;5067353;28;19925;-51
2022/12/17 22:22:35;;;;;;;;;;;;;;;;;;5070435;28;20019;-55
2022/12/17 22:25:02;;;;;;;;;;;;;;;;;;5072235;28;20407;-52
2022/12/17 22:27:30;;;;;;;;;;;;;;;;;;5071978;28;19954;-52
2022/12/17 22:35:25;;;;;;;;;;;;;;;;;;5052062;28;20404;-55
2022/12/17 22:37:52;;;;;;;;;;;;;;;;;;5062640;28;19986;-54
2022/12/17 22:40:19;;;;;;;;;;;;;;;;;;5071669;28;20542;-55
2022/12/17 22:45:41;;;;;;;;;;;;;;;;;;5071398;28;19933;-53
2022/12/17 22:48:08;;;;;;;;;;;;;;;;;;5072308;28;19932;-55
2022/12/17 22:50:35;;;;;;;;;;;;;;;;;;5071623;28;19975;-50
2022/12/17 22:53:01;;;;;;;;;;;;;;;;;;5060564;28;19987;-52
2022/12/17 22:55:29;;;;;;;;;;;;;;;;;;5060811;28;20058;-54
2022/12/17 22:57:57;;;;;;;;;;;;;;;;;;5075248;28;20066;-49
2022/12/17 23:00:24;;;;;;;;;;;;;;;;;;5066744;28;20015;-53
2022/12/17 23:02:52;;;;;;;;;;;;;;;;;;5055079;28;20350;-50
2022/12/17 23:05:19;;;;;;;;;;;;;;;;;;5058976;28;20285;-50
2022/12/17 23:07:45;;;;;;;;;;;;;;;;;;5067709;28;20003;-53
2022/12/17 23:10:12;;;;;;;;;;;;;;;;;;5057954;28;19933;-55
2022/12/17 23:12:51;;;;;;;;;;;;;;;;;;5054702;28;19925;-53
2022/12/17 23:15:20;;;;;;;;;;;;;;;;;;5072400;28;20639;-50
2022/12/17 23:17:47;;;;;;;;;;;;;;;;;;5067972;28;19924;-56
2022/12/17 23:20:14;;;;;;;;;;;;;;;;;;5074434;28;19928;-55
2022/12/17 23:22:40;;;;;;;;;;;;;;;;;;5062366;28;19974;-53
2022/12/17 23:25:07;;;;;;;;;;;;;;;;;;5055217;28;19987;-53
2022/12/17 23:27:34;;;;;;;;;;;;;;;;;;5054435;28;19924;-53
2022/12/17 23:30:00;;;;;;;;;;;;;;;;;;5067413;28;20010;-55
2022/12/17 23:32:28;;;;;;;;;;;;;;;;;;5065880;28;19932;-55
2022/12/17 23:34:54;;;;;;;;;;;;;;;;;;5060565;28;19925;-56
2022/12/17 23:37:21;;;;;;;;;;;;;;;;;;5067149;28;19998;-55
2022/12/17 23:39:47;;;;;;;;;;;;;;;;;;5065230;28;19924;-52
2022/12/17 23:42:14;;;;;;;;;;;;;;;;;;5054462;28;19928;-52
2022/12/17 23:44:40;;;;;;;;;;;;;;;;;;5054711;28;20008;-50
2022/12/17 23:47:07;;;;;;;;;;;;;;;;;;5054414;28;19979;-52
2022/12/17 23:49:35;;;;;;;;;;;;;;;;;;5059561;28;19979;-53
2022/12/17 23:52:01;;;;;;;;;;;;;;;;;;5072364;28;19928;-50
2022/12/17 23:54:28;;;;;;;;;;;;;;;;;;5073615;28;19924;-53
2022/12/17 23:56:54;;;;;;;;;;;;;;;;;;5092246;28;19949;-54
2022/12/17 23:59:21;;;;;;;;;;;;;;;;;;5059820;28;20281;-52
